createdAt,value
2019-04-23T00:00:13.977Z,10.34
2019-04-23T00:01:14.702Z,10.33
2019-04-23T00:01:54.367Z,10.33
2019-04-23T00:02:47.716Z,10.30
2019-04-23T00:03:14.014Z,10.30
2019-04-23T00:03:52.062Z,10.31
2019-04-23T00:04:26.487Z,10.26
2019-04-23T00:04:52.852Z,10.27
2019-04-23T00:06:14.675Z,10.23
2019-04-23T00:06:43.847Z,10.24
2019-04-23T00:07:26.954Z,10.21
2019-04-23T00:07:48.658Z,10.21
2019-04-23T00:08:18.936Z,10.21
2019-04-23T00:09:26.051Z,10.19
2019-04-23T00:10:03.504Z,10.17
2019-04-23T00:10:53.755Z,10.14
2019-04-23T00:11:39.830Z,10.13
2019-04-23T00:12:23.841Z,10.14
2019-04-23T00:12:49.397Z,10.10
2019-04-23T00:13:24.763Z,10.10
2019-04-23T00:14:27.260Z,10.10
2019-04-23T00:15:04.938Z,10.09
2019-04-23T00:15:40.268Z,10.10
2019-04-23T00:16:21.988Z,10.06
2019-04-23T00:16:49.306Z,10.06
2019-04-23T00:17:22.667Z,10.06
2019-04-23T00:18:00.474Z,10.05
2019-04-23T00:18:56.339Z,10.03
2019-04-23T00:19:43.230Z,10.03
2019-04-23T00:20:09.550Z,10.05
2019-04-23T00:20:42.967Z,10.03
2019-04-23T00:21:20.219Z,10.02
2019-04-23T00:21:53.528Z,10.02
2019-04-23T00:22:36.695Z,9.98
2019-04-23T00:23:46.276Z,9.99
2019-04-23T00:24:38.438Z,9.98
2019-04-23T00:25:41.544Z,10.00
2019-04-23T00:26:57.612Z,9.98
2019-04-23T00:28:04.573Z,9.95
2019-04-23T00:28:31.410Z,9.92
2019-04-23T00:29:10.634Z,9.92
2019-04-23T00:29:40.190Z,9.93
2019-04-23T00:30:04.038Z,9.93
2019-04-23T00:30:48.217Z,9.89
2019-04-23T00:31:19.551Z,9.89
2019-04-23T00:31:44.572Z,9.88
2019-04-23T00:32:25.153Z,9.89
2019-04-23T00:32:48.125Z,9.88
2019-04-23T00:33:25.099Z,9.86
2019-04-23T00:33:57.435Z,9.86
2019-04-23T00:34:33.298Z,9.85
2019-04-23T00:35:11.363Z,9.86
2019-04-23T00:35:38.872Z,9.84
2019-04-23T00:36:10.661Z,9.85
2019-04-23T00:36:47.667Z,9.82
2019-04-23T00:37:25.706Z,9.84
2019-04-23T00:37:51.423Z,9.85
2019-04-23T00:38:26.530Z,9.85
2019-04-23T00:38:55.803Z,9.82
2019-04-23T00:39:37.593Z,9.84
2019-04-23T00:40:03.131Z,9.81
2019-04-23T00:40:40.636Z,9.84
2019-04-23T00:41:10.971Z,9.82
2019-04-23T00:41:42.677Z,9.81
2019-04-23T00:42:23.883Z,9.81
2019-04-23T00:42:47.922Z,9.81
2019-04-23T00:43:28.526Z,9.84
2019-04-23T00:44:41.444Z,9.79
2019-04-23T00:45:00.237Z,9.82
2019-04-23T00:45:44.211Z,9.82
2019-04-23T00:46:15.482Z,9.82
2019-04-23T00:46:41.943Z,9.81
2019-04-23T00:47:22.380Z,9.81
2019-04-23T00:47:52.665Z,9.81
2019-04-23T00:48:59.188Z,9.84
2019-04-23T00:49:32.433Z,9.82
2019-04-23T00:50:46.035Z,9.82
2019-04-23T00:51:02.268Z,9.79
2019-04-23T00:51:45.968Z,9.79
2019-04-23T00:52:20.458Z,9.78
2019-04-23T00:52:45.955Z,9.79
2019-04-23T00:53:24.435Z,9.78
2019-04-23T00:53:54.696Z,9.78
2019-04-23T00:54:25.526Z,9.79
2019-04-23T00:55:05.478Z,9.78
2019-04-23T00:55:35.224Z,9.79
2019-04-23T00:56:25.238Z,9.76
2019-04-23T00:57:23.153Z,9.78
2019-04-23T00:57:50.454Z,9.73
2019-04-23T00:58:54.640Z,9.75
2019-04-23T00:59:31.049Z,9.73
2019-04-23T01:01:04.364Z,9.72
2019-04-23T01:01:52.860Z,9.73
2019-04-23T01:02:33.059Z,9.70
2019-04-23T01:02:56.766Z,9.70
2019-04-23T01:03:19.540Z,9.72
2019-04-23T01:03:53.163Z,9.70
2019-04-23T01:04:27.480Z,9.69
2019-04-23T01:05:07.153Z,9.70
2019-04-23T01:05:30.985Z,9.72
2019-04-23T01:06:17.727Z,9.69
2019-04-23T01:06:39.017Z,9.69
2019-04-23T01:07:11.112Z,9.69
2019-04-23T01:07:46.943Z,9.66
2019-04-23T01:08:18.595Z,9.65
2019-04-23T01:08:52.337Z,9.66
2019-04-23T01:09:29.421Z,9.66
2019-04-23T01:10:46.547Z,9.66
2019-04-23T01:11:19.017Z,9.66
2019-04-23T01:11:54.180Z,9.63
2019-04-23T01:12:31.825Z,9.62
2019-04-23T01:12:59.789Z,9.63
2019-04-23T01:13:31.756Z,9.61
2019-04-23T01:14:06.698Z,9.63
2019-04-23T01:14:32.500Z,9.61
2019-04-23T01:15:09.963Z,9.61
2019-04-23T01:16:28.293Z,9.61
2019-04-23T01:16:45.989Z,9.59
2019-04-23T01:17:35.140Z,9.59
2019-04-23T01:18:02.227Z,9.61
2019-04-23T01:18:45.942Z,9.58
2019-04-23T01:19:32.044Z,9.61
2019-04-23T01:20:01.424Z,9.59
2019-04-23T01:20:43.966Z,9.59
2019-04-23T01:20:59.035Z,9.59
2019-04-23T01:21:32.657Z,9.59
2019-04-23T01:22:08.481Z,9.59
2019-04-23T01:22:42.188Z,9.55
2019-04-23T01:23:16.049Z,9.57
2019-04-23T01:23:54.804Z,9.59
2019-04-23T01:24:25.874Z,9.58
2019-04-23T01:25:09.779Z,9.58
2019-04-23T01:25:42.681Z,9.58
2019-04-23T01:26:32.375Z,9.58
2019-04-23T01:27:39.606Z,9.58
2019-04-23T01:28:05.867Z,9.58
2019-04-23T01:28:35.592Z,9.57
2019-04-23T01:29:09.194Z,9.55
2019-04-23T01:29:47.063Z,9.57
2019-04-23T01:30:15.886Z,9.55
2019-04-23T01:31:20.082Z,9.55
2019-04-23T01:31:53.162Z,9.55
2019-04-23T01:32:31.465Z,9.54
2019-04-23T01:33:02.962Z,9.52
2019-04-23T01:33:40.641Z,9.54
2019-04-23T01:34:13.033Z,9.52
2019-04-23T01:34:50.009Z,9.55
2019-04-23T01:35:17.763Z,9.52
2019-04-23T01:35:54.407Z,9.52
2019-04-23T01:36:34.707Z,9.54
2019-04-23T01:36:51.698Z,9.52
2019-04-23T01:37:30.303Z,9.52
2019-04-23T01:37:58.002Z,9.51
2019-04-23T01:39:06.349Z,9.49
2019-04-23T01:39:39.705Z,9.48
2019-04-23T01:40:40.745Z,9.49
2019-04-23T01:41:25.228Z,9.51
2019-04-23T01:41:57.418Z,9.48
2019-04-23T01:42:29.077Z,9.48
2019-04-23T01:43:30.102Z,9.47
2019-04-23T01:43:55.314Z,9.47
2019-04-23T01:44:42.552Z,9.48
2019-04-23T01:45:24.151Z,9.48
2019-04-23T01:45:44.390Z,9.45
2019-04-23T01:46:17.959Z,9.45
2019-04-23T01:47:25.267Z,9.41
2019-04-23T01:47:55.145Z,9.44
2019-04-23T01:48:39.165Z,9.42
2019-04-23T01:49:07.198Z,9.41
2019-04-23T01:49:50.210Z,9.40
2019-04-23T01:50:14.163Z,9.40
2019-04-23T01:50:52.090Z,9.41
2019-04-23T01:51:16.705Z,9.40
2019-04-23T01:51:54.610Z,9.38
2019-04-23T01:52:25.008Z,9.38
2019-04-23T01:53:00.735Z,9.38
2019-04-23T01:53:57.421Z,9.38
2019-04-23T01:54:39.435Z,9.35
2019-04-23T01:55:08.327Z,9.33
2019-04-23T01:55:42.128Z,9.35
2019-04-23T01:56:11.133Z,9.31
2019-04-23T01:56:38.560Z,9.33
2019-04-23T01:57:23.152Z,9.30
2019-04-23T01:59:31.865Z,9.28
2019-04-23T02:00:08.548Z,9.28
2019-04-23T02:00:41.056Z,9.24
2019-04-23T02:01:12.947Z,9.26
2019-04-23T02:01:51.592Z,9.23
2019-04-23T02:02:22.083Z,9.24
2019-04-23T02:02:55.598Z,9.24
2019-04-23T02:03:26.924Z,9.23
2019-04-23T02:04:06.394Z,9.21
2019-04-23T02:04:28.615Z,9.19
2019-04-23T02:05:09.299Z,9.20
2019-04-23T02:06:25.140Z,9.19
2019-04-23T02:06:44.814Z,9.19
2019-04-23T02:07:25.846Z,9.19
2019-04-23T02:08:20.917Z,9.17
2019-04-23T02:08:58.474Z,9.17
2019-04-23T02:09:40.275Z,9.19
2019-04-23T02:10:16.810Z,9.17
2019-04-23T02:10:48.765Z,9.14
2019-04-23T02:11:59.201Z,9.14
2019-04-23T02:12:20.710Z,9.14
2019-04-23T02:12:57.022Z,9.14
2019-04-23T02:13:32.331Z,9.13
2019-04-23T02:14:01.711Z,9.14
2019-04-23T02:14:34.793Z,9.14
2019-04-23T02:15:12.128Z,9.13
2019-04-23T02:16:12.079Z,9.10
2019-04-23T02:16:42.163Z,9.11
2019-04-23T02:17:24.959Z,9.10
2019-04-23T02:18:02.112Z,9.10
2019-04-23T02:18:29.574Z,9.10
2019-04-23T02:19:30.431Z,9.09
2019-04-23T02:20:14.130Z,9.09
2019-04-23T02:20:44.359Z,9.07
2019-04-23T02:21:15.355Z,9.09
2019-04-23T02:21:54.631Z,9.07
2019-04-23T02:22:56.256Z,9.06
2019-04-23T02:23:18.319Z,9.03
2019-04-23T02:23:49.391Z,9.03
2019-04-23T02:24:27.788Z,9.04
2019-04-23T02:25:11.130Z,9.04
2019-04-23T02:26:09.055Z,9.02
2019-04-23T02:26:36.838Z,9.00
2019-04-23T02:27:23.023Z,9.03
2019-04-23T02:27:54.421Z,9.02
2019-04-23T02:28:42.761Z,9.02
2019-04-23T02:29:37.841Z,8.99
2019-04-23T02:30:15.659Z,8.98
2019-04-23T02:31:21.662Z,8.98
2019-04-23T02:32:22.009Z,8.98
2019-04-23T02:32:59.397Z,8.96
2019-04-23T02:33:39.868Z,8.95
2019-04-23T02:34:05.976Z,8.96
2019-04-23T02:36:47.477Z,8.93
2019-04-23T02:37:28.606Z,8.90
2019-04-23T02:38:31.833Z,8.92
2019-04-23T02:38:55.948Z,8.89
2019-04-23T02:39:29.341Z,8.90
2019-04-23T02:40:48.840Z,8.89
2019-04-23T02:41:12.891Z,8.88
2019-04-23T02:42:07.350Z,8.88
2019-04-23T02:44:04.990Z,8.86
2019-04-23T02:44:24.068Z,8.86
2019-04-23T02:45:02.635Z,8.88
2019-04-23T02:46:05.622Z,8.88
2019-04-23T02:46:43.243Z,8.89
2019-04-23T02:47:24.728Z,8.86
2019-04-23T02:47:52.955Z,8.88
2019-04-23T02:48:56.314Z,8.86
2019-04-23T02:49:40.590Z,8.88
2019-04-23T02:50:42.626Z,8.88
2019-04-23T02:51:12.894Z,8.89
2019-04-23T02:51:47.389Z,8.85
2019-04-23T02:52:24.095Z,8.86
2019-04-23T02:52:49.019Z,8.85
2019-04-23T02:53:44.804Z,8.89
2019-04-23T02:54:04.023Z,8.90
2019-04-23T02:54:46.418Z,8.88
2019-04-23T02:55:43.677Z,8.86
2019-04-23T02:56:12.300Z,8.88
2019-04-23T02:57:24.831Z,8.86
2019-04-23T02:57:55.505Z,8.89
2019-04-23T02:58:32.779Z,8.88
2019-04-23T02:59:04.262Z,8.88
2019-04-23T02:59:57.791Z,8.85
2019-04-23T03:01:11.427Z,8.86
2019-04-23T03:01:29.867Z,8.85
2019-04-23T03:02:07.612Z,8.82
2019-04-23T03:03:44.905Z,8.80
2019-04-23T03:04:50.715Z,8.82
2019-04-23T03:05:19.899Z,8.80
2019-04-23T03:05:51.117Z,8.79
2019-04-23T03:06:19.061Z,8.78
2019-04-23T03:07:18.748Z,8.79
2019-04-23T03:07:37.213Z,8.79
2019-04-23T03:09:33.947Z,8.78
2019-04-23T03:10:16.014Z,8.76
2019-04-23T03:10:53.421Z,8.75
2019-04-23T03:12:00.723Z,8.76
2019-04-23T03:12:31.423Z,8.73
2019-04-23T03:13:10.216Z,8.75
2019-04-23T03:13:48.461Z,8.75
2019-04-23T03:14:12.123Z,8.72
2019-04-23T03:14:43.673Z,8.73
2019-04-23T03:16:19.931Z,8.72
2019-04-23T03:16:55.158Z,8.72
2019-04-23T03:17:19.018Z,8.72
2019-04-23T03:19:25.492Z,8.69
2019-04-23T03:20:00.809Z,8.71
2019-04-23T03:20:38.388Z,8.72
2019-04-23T03:21:26.935Z,8.71
2019-04-23T03:22:56.182Z,8.68
2019-04-23T03:23:33.106Z,8.69
2019-04-23T03:26:57.037Z,8.63
2019-04-23T03:27:22.899Z,8.63
2019-04-23T03:28:35.780Z,8.62
2019-04-23T03:29:07.666Z,8.65
2019-04-23T03:29:44.376Z,8.62
2019-04-23T03:30:12.899Z,8.59
2019-04-23T03:35:20.337Z,8.59
2019-04-23T03:36:13.645Z,8.58
2019-04-23T03:38:13.413Z,8.61
2019-04-23T03:38:43.064Z,8.59
2019-04-23T03:39:37.396Z,8.59
2019-04-23T03:39:50.437Z,8.59
2019-04-23T03:40:46.477Z,8.61
2019-04-23T03:41:21.377Z,8.59
2019-04-23T03:41:53.900Z,8.59
2019-04-23T03:42:24.089Z,8.59
2019-04-23T03:42:59.005Z,8.61
2019-04-23T03:43:33.282Z,8.61
2019-04-23T03:43:59.348Z,8.62
2019-04-23T03:46:24.405Z,8.66
2019-04-23T03:48:03.233Z,8.68
2019-04-23T03:48:41.960Z,8.69
2019-04-23T03:49:03.748Z,8.71
2019-04-23T03:49:41.235Z,8.71
2019-04-23T03:50:14.867Z,8.72
2019-04-23T03:51:17.228Z,8.76
2019-04-23T03:51:52.225Z,8.78
2019-04-23T03:52:27.712Z,8.83
2019-04-23T03:53:14.077Z,8.82
2019-04-23T03:53:43.206Z,8.83
2019-04-23T03:54:21.812Z,8.85
2019-04-23T03:54:37.996Z,8.82
2019-04-23T03:55:12.602Z,8.82
2019-04-23T03:55:45.430Z,8.85
2019-04-23T03:56:25.457Z,8.86
2019-04-23T03:57:06.085Z,8.86
2019-04-23T03:57:30.901Z,8.86
2019-04-23T03:57:54.283Z,8.88
2019-04-23T03:59:11.413Z,8.86
2019-04-23T04:00:15.663Z,8.86
2019-04-23T04:00:51.531Z,8.86
2019-04-23T04:01:25.262Z,8.89
2019-04-23T04:03:58.911Z,8.90
2019-04-23T04:04:23.086Z,8.90
2019-04-23T04:05:10.737Z,8.90
2019-04-23T04:07:28.410Z,8.90
2019-04-23T04:09:06.142Z,8.92
2019-04-23T04:10:10.784Z,8.92
2019-04-23T04:10:55.425Z,8.92
2019-04-23T04:11:14.607Z,8.93
2019-04-23T04:11:33.503Z,8.92
2019-04-23T04:12:32.839Z,8.96
2019-04-23T04:12:46.018Z,8.96
2019-04-23T04:13:30.721Z,8.98
2019-04-23T04:14:12.160Z,8.98
2019-04-23T04:14:38.240Z,9.02
2019-04-23T04:16:07.296Z,9.03
2019-04-23T04:17:20.155Z,9.02
2019-04-23T04:18:01.863Z,9.04
2019-04-23T04:19:40.178Z,9.06
2019-04-23T04:20:09.727Z,9.07
2019-04-23T04:20:40.510Z,9.07
2019-04-23T04:21:16.060Z,9.09
2019-04-23T04:21:49.312Z,9.07
2019-04-23T04:23:00.035Z,9.07
2019-04-23T04:24:01.319Z,9.07
2019-04-23T04:25:44.856Z,9.09
2019-04-23T04:26:13.215Z,9.09
2019-04-23T04:27:27.024Z,9.10
2019-04-23T04:28:28.774Z,9.09
2019-04-23T04:29:39.700Z,9.09
2019-04-23T04:31:30.907Z,9.11
2019-04-23T04:31:48.511Z,9.11
2019-04-23T04:32:12.040Z,9.13
2019-04-23T04:33:00.585Z,9.14
2019-04-23T04:33:55.453Z,9.13
2019-04-23T04:34:56.192Z,9.13
2019-04-23T04:35:18.620Z,9.14
2019-04-23T04:35:54.418Z,9.16
2019-04-23T04:37:40.835Z,9.17
2019-04-23T04:37:51.398Z,9.20
2019-04-23T04:38:42.045Z,9.20
2019-04-23T04:38:54.370Z,9.21
2019-04-23T04:40:42.449Z,9.23
2019-04-23T04:41:05.703Z,9.26
2019-04-23T04:41:58.806Z,9.26
2019-04-23T04:43:02.229Z,9.28
2019-04-23T04:43:41.550Z,9.27
2019-04-23T04:44:05.203Z,9.30
2019-04-23T04:45:49.826Z,9.33
2019-04-23T04:46:47.778Z,9.35
2019-04-23T04:47:25.821Z,9.38
2019-04-23T04:47:44.979Z,9.38
2019-04-23T04:48:23.204Z,9.40
2019-04-23T04:49:12.096Z,9.40
2019-04-23T04:49:51.058Z,9.41
2019-04-23T04:49:59.591Z,9.44
2019-04-23T04:50:43.532Z,9.45
2019-04-23T04:52:01.034Z,9.47
2019-04-23T04:53:00.699Z,9.51
2019-04-23T04:54:22.828Z,9.54
2019-04-23T04:55:05.258Z,9.54
2019-04-23T04:55:47.180Z,9.55
2019-04-23T04:56:29.428Z,9.57
2019-04-23T04:56:56.562Z,9.57
2019-04-23T04:58:21.170Z,9.59
2019-04-23T04:59:09.294Z,9.61
2019-04-23T04:59:53.954Z,9.62
2019-04-23T05:00:23.552Z,9.62
2019-04-23T05:00:59.654Z,9.63
2019-04-23T05:01:16.475Z,9.63
2019-04-23T05:02:01.616Z,9.63
2019-04-23T05:03:22.083Z,9.66
2019-04-23T05:03:58.214Z,9.70
2019-04-23T05:04:37.434Z,9.70
2019-04-23T05:05:29.494Z,9.72
2019-04-23T05:07:27.525Z,9.78
2019-04-23T05:08:29.077Z,9.81
2019-04-23T05:09:04.919Z,9.81
2019-04-23T05:09:42.052Z,9.81
2019-04-23T05:10:49.770Z,9.84
2019-04-23T05:11:51.877Z,9.86
2019-04-23T05:13:08.114Z,9.88
2019-04-23T05:14:33.617Z,9.89
2019-04-23T05:15:03.152Z,9.90
2019-04-23T05:15:36.965Z,9.92
2019-04-23T05:16:49.040Z,9.96
2019-04-23T05:17:24.425Z,9.96
2019-04-23T05:18:11.628Z,9.98
2019-04-23T05:18:40.039Z,10.00
2019-04-23T05:19:23.498Z,10.02
2019-04-23T05:20:19.892Z,10.03
2019-04-23T05:21:01.900Z,10.03
2019-04-23T05:21:33.306Z,10.06
2019-04-23T05:22:42.770Z,10.09
2019-04-23T05:23:16.526Z,10.10
2019-04-23T05:23:54.373Z,10.12
2019-04-23T05:24:08.555Z,10.13
2019-04-23T05:24:43.253Z,10.13
2019-04-23T05:25:12.614Z,10.16
2019-04-23T05:25:50.001Z,10.17
2019-04-23T05:26:25.056Z,10.17
2019-04-23T05:26:53.214Z,10.21
2019-04-23T05:27:42.730Z,10.21
2019-04-23T05:28:08.061Z,10.24
2019-04-23T05:28:42.520Z,10.23
2019-04-23T05:29:11.491Z,10.24
2019-04-23T05:29:51.181Z,10.27
2019-04-23T05:30:52.146Z,10.31
2019-04-23T05:31:53.440Z,10.34
2019-04-23T05:32:27.266Z,10.36
2019-04-23T05:33:06.243Z,10.36
2019-04-23T05:33:57.174Z,10.37
2019-04-23T05:34:45.091Z,10.44
2019-04-23T05:35:26.173Z,10.43
2019-04-23T05:36:30.790Z,10.48
2019-04-23T05:36:54.222Z,10.47
2019-04-23T05:37:39.367Z,10.47
2019-04-23T05:38:42.902Z,10.51
2019-04-23T05:39:16.917Z,10.54
2019-04-23T05:39:45.521Z,10.54
2019-04-23T05:40:25.210Z,10.55
2019-04-23T05:41:21.969Z,10.58
2019-04-23T05:42:04.402Z,10.61
2019-04-23T05:42:26.364Z,10.63
2019-04-23T05:42:58.507Z,10.64
2019-04-23T05:43:38.545Z,10.65
2019-04-23T05:44:10.466Z,10.67
2019-04-23T05:45:13.024Z,10.71
2019-04-23T05:45:49.650Z,10.70
2019-04-23T05:46:52.257Z,10.74
2019-04-23T05:47:27.367Z,10.75
2019-04-23T05:48:06.763Z,10.75
2019-04-23T05:48:32.049Z,10.79
2019-04-23T05:49:09.386Z,10.81
2019-04-23T05:49:39.741Z,10.82
2019-04-23T05:50:18.710Z,10.84
2019-04-23T05:50:59.175Z,10.86
2019-04-23T05:51:55.166Z,10.89
2019-04-23T05:52:33.722Z,10.91
2019-04-23T05:52:59.795Z,10.94
2019-04-23T05:53:33.465Z,10.96
2019-04-23T05:54:08.453Z,10.98
2019-04-23T05:54:43.236Z,11.03
2019-04-23T05:55:47.625Z,11.05
2019-04-23T05:56:21.299Z,11.07
2019-04-23T05:56:53.940Z,11.09
2019-04-23T05:57:20.219Z,11.12
2019-04-23T05:58:05.183Z,11.15
2019-04-23T05:59:06.199Z,11.19
2019-04-23T05:59:37.583Z,11.20
2019-04-23T06:00:13.232Z,11.19
2019-04-23T06:01:08.710Z,11.23
2019-04-23T06:01:49.329Z,11.29
2019-04-23T06:01:57.284Z,11.31
2019-04-23T06:02:33.651Z,11.33
2019-04-23T06:03:46.824Z,11.37
2019-04-23T06:04:42.716Z,11.44
2019-04-23T06:05:20.032Z,11.44
2019-04-23T06:05:58.551Z,11.49
2019-04-23T06:06:33.124Z,11.51
2019-04-23T06:07:11.456Z,11.55
2019-04-23T06:08:03.467Z,11.58
2019-04-23T06:08:40.091Z,11.60
2019-04-23T06:09:14.193Z,11.63
2019-04-23T06:09:49.915Z,11.65
2019-04-23T06:10:23.225Z,11.68
2019-04-23T06:11:28.161Z,11.74
2019-04-23T06:11:57.037Z,11.74
2019-04-23T06:12:25.184Z,11.77
2019-04-23T06:13:04.750Z,11.81
2019-04-23T06:13:43.071Z,11.81
2019-04-23T06:15:14.606Z,11.88
2019-04-23T06:15:46.788Z,11.91
2019-04-23T06:16:22.166Z,11.92
2019-04-23T06:17:07.962Z,11.93
2019-04-23T06:17:38.029Z,11.96
2019-04-23T06:18:01.800Z,11.98
2019-04-23T06:18:40.531Z,11.99
2019-04-23T06:19:07.993Z,12.03
2019-04-23T06:19:36.245Z,12.02
2019-04-23T06:20:49.273Z,12.09
2019-04-23T06:21:25.215Z,12.09
2019-04-23T06:22:00.397Z,12.11
2019-04-23T06:22:30.107Z,12.15
2019-04-23T06:23:05.469Z,12.18
2019-04-23T06:23:38.176Z,12.19
2019-04-23T06:24:13.169Z,12.19
2019-04-23T06:24:55.246Z,12.23
2019-04-23T06:25:27.394Z,12.25
2019-04-23T06:25:57.661Z,12.28
2019-04-23T06:26:32.896Z,12.28
2019-04-23T06:26:53.522Z,12.28
2019-04-23T06:28:01.589Z,12.32
2019-04-23T06:28:26.971Z,12.35
2019-04-23T06:29:08.939Z,12.37
2019-04-23T06:30:15.043Z,12.40
2019-04-23T06:31:24.789Z,12.43
2019-04-23T06:31:52.619Z,12.43
2019-04-23T06:32:24.256Z,12.43
2019-04-23T06:33:04.348Z,12.47
2019-04-23T06:33:37.682Z,12.50
2019-04-23T06:34:10.842Z,12.51
2019-04-23T06:35:08.797Z,12.57
2019-04-23T06:35:48.781Z,12.57
2019-04-23T06:36:18.998Z,12.60
2019-04-23T06:37:26.721Z,12.61
2019-04-23T06:38:41.334Z,12.66
2019-04-23T06:38:55.825Z,12.68
2019-04-23T06:39:35.990Z,12.68
2019-04-23T06:40:12.699Z,12.70
2019-04-23T06:40:41.962Z,12.71
2019-04-23T06:41:16.971Z,12.74
2019-04-23T06:41:50.019Z,12.74
2019-04-23T06:42:17.986Z,12.78
2019-04-23T06:42:54.823Z,12.80
2019-04-23T06:43:40.796Z,12.81
2019-04-23T06:45:32.057Z,12.91
2019-04-23T06:46:10.002Z,12.92
2019-04-23T06:46:45.991Z,12.95
2019-04-23T06:47:42.901Z,13.01
2019-04-23T06:48:58.401Z,13.04
2019-04-23T06:49:30.662Z,13.04
2019-04-23T06:49:55.723Z,13.07
2019-04-23T06:50:35.179Z,13.09
2019-04-23T06:51:45.657Z,13.11
2019-04-23T06:52:15.201Z,13.17
2019-04-23T06:52:41.505Z,13.15
2019-04-23T06:53:18.089Z,13.17
2019-04-23T06:53:49.820Z,13.19
2019-04-23T06:54:24.451Z,13.21
2019-04-23T06:56:03.944Z,13.25
2019-04-23T06:56:49.366Z,13.26
2019-04-23T06:57:19.134Z,13.29
2019-04-23T06:57:41.116Z,13.32
2019-04-23T06:58:26.014Z,13.33
2019-04-23T06:58:53.014Z,13.33
2019-04-23T06:59:29.316Z,13.38
2019-04-23T06:59:54.558Z,13.38
2019-04-23T07:00:39.420Z,13.39
2019-04-23T07:01:04.933Z,13.40
2019-04-23T07:01:46.350Z,13.42
2019-04-23T07:02:51.602Z,13.47
2019-04-23T07:03:25.114Z,13.49
2019-04-23T07:03:58.249Z,13.50
2019-04-23T07:05:06.503Z,13.53
2019-04-23T07:06:05.025Z,13.53
2019-04-23T07:07:42.946Z,13.59
2019-04-23T07:08:08.327Z,13.61
2019-04-23T07:08:56.286Z,13.61
2019-04-23T07:09:43.884Z,13.67
2019-04-23T07:10:22.007Z,13.68
2019-04-23T07:11:00.646Z,13.67
2019-04-23T07:11:30.349Z,13.70
2019-04-23T07:11:55.541Z,13.72
2019-04-23T07:12:35.197Z,13.73
2019-04-23T07:13:08.819Z,13.74
2019-04-23T07:13:46.629Z,13.74
2019-04-23T07:14:02.476Z,13.77
2019-04-23T07:15:30.946Z,13.83
2019-04-23T07:15:51.993Z,13.81
2019-04-23T07:16:24.059Z,13.87
2019-04-23T07:16:52.884Z,13.86
2019-04-23T07:17:24.900Z,13.90
2019-04-23T07:18:03.970Z,13.90
2019-04-23T07:18:34.589Z,13.94
2019-04-23T07:19:54.656Z,13.97
2019-04-23T07:20:18.100Z,13.97
2019-04-23T07:20:50.523Z,14.02
2019-04-23T07:21:58.769Z,14.05
2019-04-23T07:23:04.889Z,14.07
2019-04-23T07:24:08.498Z,14.11
2019-04-23T07:24:45.830Z,14.15
2019-04-23T07:25:56.084Z,14.18
2019-04-23T07:26:48.168Z,14.18
2019-04-23T07:27:30.329Z,14.18
2019-04-23T07:28:07.138Z,14.21
2019-04-23T07:29:10.669Z,14.24
2019-04-23T07:29:41.754Z,14.26
2019-04-23T07:30:50.048Z,14.25
2019-04-23T07:31:58.998Z,14.29
2019-04-23T07:32:44.716Z,14.31
2019-04-23T07:33:04.125Z,14.32
2019-04-23T07:33:38.254Z,14.33
2019-04-23T07:34:05.172Z,14.39
2019-04-23T07:34:49.524Z,14.36
2019-04-23T07:35:13.250Z,14.42
2019-04-23T07:35:51.782Z,14.42
2019-04-23T07:36:32.386Z,14.45
2019-04-23T07:36:54.655Z,14.49
2019-04-23T07:38:20.668Z,14.52
2019-04-23T07:38:56.990Z,14.56
2019-04-23T07:39:27.289Z,14.58
2019-04-23T07:40:19.627Z,14.62
2019-04-23T07:40:31.225Z,14.67
2019-04-23T07:41:23.405Z,14.67
2019-04-23T07:42:37.265Z,14.74
2019-04-23T07:43:17.807Z,14.76
2019-04-23T07:44:08.407Z,14.82
2019-04-23T07:44:56.403Z,14.82
2019-04-23T07:45:26.079Z,14.86
2019-04-23T07:46:08.189Z,14.88
2019-04-23T07:47:15.704Z,14.93
2019-04-23T07:48:06.541Z,14.93
2019-04-23T07:48:32.060Z,14.98
2019-04-23T07:49:11.783Z,15.03
2019-04-23T07:49:49.086Z,15.03
2019-04-23T07:50:23.438Z,15.05
2019-04-23T07:50:49.461Z,15.05
2019-04-23T07:51:19.804Z,15.10
2019-04-23T07:52:04.813Z,15.10
2019-04-23T07:52:33.463Z,15.11
2019-04-23T07:53:05.560Z,15.14
2019-04-23T07:53:56.390Z,15.17
2019-04-23T07:54:51.308Z,15.19
2019-04-23T07:55:20.108Z,15.19
2019-04-23T07:56:25.868Z,15.27
2019-04-23T07:57:07.576Z,15.22
2019-04-23T07:57:40.087Z,15.27
2019-04-23T07:58:06.600Z,15.30
2019-04-23T07:58:31.919Z,15.32
2019-04-23T07:59:13.873Z,15.35
2019-04-23T07:59:43.960Z,15.35
2019-04-23T08:00:24.101Z,15.38
2019-04-23T08:00:45.114Z,15.37
2019-04-23T08:01:25.201Z,15.42
2019-04-23T08:01:59.724Z,15.43
2019-04-23T08:02:26.139Z,15.43
2019-04-23T08:03:08.472Z,15.43
2019-04-23T08:03:33.067Z,15.48
2019-04-23T08:04:01.847Z,15.51
2019-04-23T08:05:04.775Z,15.51
2019-04-23T08:05:26.797Z,15.52
2019-04-23T08:05:44.947Z,15.55
2019-04-23T08:06:16.530Z,15.55
2019-04-23T08:06:55.906Z,15.58
2019-04-23T08:07:28.233Z,15.58
2019-04-23T08:08:33.376Z,15.62
2019-04-23T08:09:02.312Z,15.61
2019-04-23T08:09:43.425Z,15.62
2019-04-23T08:10:09.005Z,15.62
2019-04-23T08:11:14.340Z,15.65
2019-04-23T08:12:12.960Z,15.69
2019-04-23T08:12:43.758Z,15.70
2019-04-23T08:13:15.871Z,15.70
2019-04-23T08:14:03.129Z,15.73
2019-04-23T08:14:22.346Z,15.73
2019-04-23T08:14:55.377Z,15.73
2019-04-23T08:15:22.979Z,15.76
2019-04-23T08:15:57.231Z,15.74
2019-04-23T08:16:38.341Z,15.77
2019-04-23T08:16:58.181Z,15.77
2019-04-23T08:17:34.646Z,15.79
2019-04-23T08:18:15.935Z,15.79
2019-04-23T08:18:45.350Z,15.81
2019-04-23T08:19:14.222Z,15.81
2019-04-23T08:20:23.317Z,15.84
2019-04-23T08:20:55.613Z,15.81
2019-04-23T08:21:27.586Z,15.86
2019-04-23T08:22:13.877Z,15.86
2019-04-23T08:22:37.356Z,15.89
2019-04-23T08:23:16.659Z,15.89
2019-04-23T08:23:55.574Z,15.90
2019-04-23T08:24:52.176Z,15.91
2019-04-23T08:25:37.408Z,15.93
2019-04-23T08:26:26.739Z,15.91
2019-04-23T08:26:53.526Z,15.94
2019-04-23T08:27:27.877Z,15.96
2019-04-23T08:28:10.518Z,15.96
2019-04-23T08:28:59.144Z,15.94
2019-04-23T08:29:22.105Z,15.97
2019-04-23T08:29:47.764Z,15.94
2019-04-23T08:30:24.060Z,15.96
2019-04-23T08:30:58.994Z,15.96
2019-04-23T08:31:40.279Z,15.94
2019-04-23T08:32:12.324Z,15.94
2019-04-23T08:32:36.918Z,15.96
2019-04-23T08:33:12.175Z,15.96
2019-04-23T08:33:49.984Z,15.94
2019-04-23T08:35:23.280Z,15.97
2019-04-23T08:36:09.443Z,15.96
2019-04-23T08:36:37.502Z,15.98
2019-04-23T08:37:09.311Z,15.98
2019-04-23T08:37:54.291Z,16.00
2019-04-23T08:38:29.523Z,16.01
2019-04-23T08:38:44.418Z,16.03
2019-04-23T08:39:21.533Z,16.04
2019-04-23T08:39:46.975Z,16.06
2019-04-23T08:40:54.131Z,16.10
2019-04-23T08:41:12.259Z,16.10
2019-04-23T08:41:33.448Z,16.13
2019-04-23T08:42:32.866Z,16.13
2019-04-23T08:43:36.798Z,16.16
2019-04-23T08:44:08.877Z,16.16
2019-04-23T08:44:46.156Z,16.18
2019-04-23T08:46:16.505Z,16.20
2019-04-23T08:47:31.946Z,16.28
2019-04-23T08:48:27.877Z,16.27
2019-04-23T08:48:50.292Z,16.31
2019-04-23T08:49:50.642Z,16.37
2019-04-23T08:50:27.722Z,16.35
2019-04-23T08:51:07.534Z,16.37
2019-04-23T08:52:11.786Z,16.44
2019-04-23T08:52:39.568Z,16.47
2019-04-23T08:53:32.792Z,16.47
2019-04-23T08:53:40.970Z,16.51
2019-04-23T08:54:25.329Z,16.52
2019-04-23T08:54:52.033Z,16.54
2019-04-23T08:55:32.526Z,16.59
2019-04-23T08:56:08.736Z,16.60
2019-04-23T08:56:35.075Z,16.63
2019-04-23T08:57:31.925Z,16.65
2019-04-23T08:58:14.140Z,16.69
2019-04-23T08:58:41.569Z,16.68
2019-04-23T08:59:24.934Z,16.69
2019-04-23T09:00:23.098Z,16.70
2019-04-23T09:01:42.767Z,16.75
2019-04-23T09:02:56.701Z,16.73
2019-04-23T09:03:13.127Z,16.79
2019-04-23T09:03:56.394Z,16.79
2019-04-23T09:04:18.541Z,16.79
2019-04-23T09:04:55.333Z,16.83
2019-04-23T09:05:23.533Z,16.82
2019-04-23T09:06:47.933Z,16.87
2019-04-23T09:07:15.713Z,16.87
2019-04-23T09:08:37.464Z,16.89
2019-04-23T09:09:20.179Z,16.90
2019-04-23T09:09:50.896Z,16.92
2019-04-23T09:10:23.000Z,16.93
2019-04-23T09:10:56.876Z,16.95
2019-04-23T09:12:21.989Z,16.96
2019-04-23T09:12:35.096Z,16.96
2019-04-23T09:13:26.152Z,16.96
2019-04-23T09:13:54.776Z,16.96
2019-04-23T09:14:28.273Z,16.96
2019-04-23T09:14:44.987Z,16.95
2019-04-23T09:15:23.067Z,16.95
2019-04-23T09:15:56.608Z,16.97
2019-04-23T09:16:32.601Z,16.99
2019-04-23T09:16:57.706Z,16.97
2019-04-23T09:17:37.551Z,16.99
2019-04-23T09:18:52.993Z,17.02
2019-04-23T09:19:14.716Z,17.05
2019-04-23T09:20:21.883Z,17.06
2019-04-23T09:20:43.246Z,17.09
2019-04-23T09:21:24.796Z,17.07
2019-04-23T09:22:02.136Z,17.09
2019-04-23T09:22:54.742Z,17.11
2019-04-23T09:23:40.898Z,17.11
2019-04-23T09:24:05.244Z,17.14